createdAt,value
2018-07-06T00:02:21.218Z,5.80
2018-07-06T00:05:00.500Z,4.10
2018-07-06T00:07:39.637Z,4.40
2018-07-06T00:10:13.082Z,5.27
2018-07-06T00:12:52.666Z,9.70
2018-07-06T00:15:31.919Z,6.40
2018-07-06T00:18:05.271Z,5.60
2018-07-06T00:20:47.332Z,5.90
2018-07-06T00:23:26.969Z,6.17
2018-07-06T00:26:08.551Z,5.03
2018-07-06T00:28:48.819Z,6.20
2018-07-06T00:31:22.221Z,6.17
2018-07-06T00:34:01.520Z,8.73
2018-07-06T00:36:35.740Z,7.40
2018-07-06T00:39:09.626Z,8.10
2018-07-06T00:41:50.344Z,7.10
2018-07-06T00:44:30.428Z,6.53
2018-07-06T00:47:12.182Z,10.67
2018-07-06T00:49:52.311Z,6.63
2018-07-06T00:52:32.596Z,6.10
2018-07-06T00:55:12.509Z,8.60
2018-07-06T00:57:53.499Z,6.17
2018-07-06T01:00:30.094Z,6.07
2018-07-06T01:03:10.651Z,6.30
2018-07-06T01:05:44.982Z,8.07
2018-07-06T01:08:24.390Z,7.50
2018-07-06T01:10:58.002Z,6.57
2018-07-06T01:13:31.512Z,6.97
2018-07-06T01:16:11.335Z,9.33
2018-07-06T01:18:44.848Z,9.73
2018-07-06T01:21:18.329Z,7.63
2018-07-06T01:23:57.846Z,8.33
2018-07-06T01:26:37.139Z,9.90
2018-07-06T01:29:17.196Z,7.80
2018-07-06T01:31:56.362Z,7.23
2018-07-06T01:34:35.671Z,6.23
2018-07-06T01:37:17.246Z,9.37
2018-07-06T01:39:56.410Z,11.20
2018-07-06T01:42:36.174Z,9.83
2018-07-06T01:45:15.650Z,7.07
2018-07-06T01:47:55.827Z,8.80
2018-07-06T01:50:35.089Z,8.10
2018-07-06T01:53:14.355Z,6.67
2018-07-06T01:55:54.551Z,6.63
2018-07-06T01:58:33.691Z,8.70
2018-07-06T02:01:14.049Z,8.63
2018-07-06T02:03:54.290Z,11.60
2018-07-06T02:06:33.460Z,7.20
2018-07-06T02:09:12.553Z,8.10
2018-07-06T02:11:52.182Z,8.70
2018-07-06T02:14:31.497Z,12.13
2018-07-06T02:17:05.434Z,11.90
2018-07-06T02:19:44.458Z,9.83
2018-07-06T02:22:18.696Z,10.60
2018-07-06T02:24:58.096Z,6.40
2018-07-06T02:27:31.508Z,7.83
2018-07-06T02:30:04.895Z,6.50
2018-07-06T02:32:46.906Z,6.20
2018-07-06T02:35:27.192Z,5.70
2018-07-06T02:38:07.526Z,7.20
2018-07-06T02:40:46.897Z,10.53
2018-07-06T02:43:29.501Z,12.07
2018-07-06T02:46:09.417Z,8.03
2018-07-06T02:48:48.708Z,5.93
2018-07-06T02:51:28.113Z,15.07
2018-07-06T02:54:08.256Z,7.90
2018-07-06T02:56:47.635Z,7.77
2018-07-06T04:17:28.966Z,8.60
2018-07-06T04:20:08.186Z,7.13
2018-07-06T04:22:48.622Z,6.80
2018-07-06T04:25:27.883Z,5.70
2018-07-06T04:28:07.038Z,7.37
2018-07-06T04:30:40.572Z,5.77
2018-07-06T04:33:19.853Z,7.43
2018-07-06T04:35:59.831Z,5.60
2018-07-06T04:38:33.181Z,8.90
2018-07-06T04:41:12.447Z,6.20
2018-07-06T04:43:45.811Z,10.60
2018-07-06T04:46:25.312Z,5.47
2018-07-06T04:49:04.371Z,6.70
2018-07-06T04:51:38.786Z,7.13
2018-07-06T04:54:18.221Z,11.67
2018-07-06T04:57:00.466Z,12.13
2018-07-06T04:59:40.563Z,5.30
2018-07-06T05:02:14.944Z,9.00
2018-07-06T05:04:54.485Z,6.40
2018-07-06T05:07:28.668Z,6.47
2018-07-06T05:10:07.843Z,6.97
2018-07-06T05:12:49.873Z,7.37
2018-07-06T05:15:30.506Z,6.20
2018-07-06T05:18:10.161Z,8.67
2018-07-06T05:20:43.577Z,6.37
2018-07-06T05:23:25.077Z,8.03
2018-07-06T05:28:58.692Z,13.43
2018-07-06T05:31:38.526Z,6.07
2018-07-06T05:34:18.550Z,6.00
2018-07-06T05:36:57.963Z,5.07
2018-07-06T05:39:37.294Z,6.13
2018-07-06T05:42:17.842Z,8.07
2018-07-06T05:44:57.238Z,4.97
2018-07-06T05:47:31.229Z,7.37
2018-07-06T05:50:12.737Z,6.07
2018-07-06T05:52:48.503Z,7.50
2018-07-06T05:55:28.426Z,7.43
2018-07-06T05:58:07.791Z,5.30
2018-07-06T06:00:46.963Z,5.30
2018-07-06T06:03:26.047Z,7.30
2018-07-06T06:06:07.517Z,11.40
2018-07-06T06:08:34.731Z,6.27
2018-07-06T06:11:02.631Z,5.70
2018-07-06T06:13:30.436Z,6.90
2018-07-06T06:15:58.374Z,11.30
2018-07-06T06:18:26.209Z,8.70
2018-07-06T06:20:54.048Z,8.63
2018-07-06T06:23:21.974Z,11.83
2018-07-06T06:25:50.769Z,9.03
2018-07-06T06:28:19.806Z,6.10
2018-07-06T06:30:47.846Z,5.30
2018-07-06T06:33:15.889Z,8.00
2018-07-06T06:35:43.942Z,7.33
2018-07-06T06:38:11.891Z,6.30
2018-07-06T06:40:39.988Z,6.33
2018-07-06T06:43:07.880Z,7.83
2018-07-06T06:45:35.934Z,8.00
2018-07-06T06:48:03.880Z,6.93
2018-07-06T06:50:31.882Z,9.73
2018-07-06T06:52:59.979Z,6.47
2018-07-06T06:55:28.018Z,7.80
2018-07-06T06:57:55.867Z,8.43
2018-07-06T07:00:27.533Z,10.57
2018-07-06T07:02:51.856Z,7.90
2018-07-06T07:05:19.842Z,10.13
2018-07-06T07:07:47.890Z,11.53
2018-07-06T07:10:15.748Z,9.73
2018-07-06T07:12:43.529Z,6.77
2018-07-06T07:15:11.988Z,5.87
2018-07-06T07:17:40.063Z,9.83
2018-07-06T07:20:08.240Z,19.83
2018-07-06T07:22:36.181Z,8.10
2018-07-06T07:25:04.834Z,7.73
2018-07-06T07:27:32.779Z,7.30
2018-07-06T07:30:01.376Z,7.90
2018-07-06T07:32:29.293Z,8.23
2018-07-06T07:34:58.483Z,8.27
2018-07-06T07:37:27.441Z,8.37
2018-07-06T07:39:55.502Z,7.40
2018-07-06T07:42:25.753Z,7.60
2018-07-06T07:44:53.761Z,8.03
2018-07-06T07:47:21.625Z,9.67
2018-07-06T07:49:49.762Z,12.70
2018-07-06T07:52:29.635Z,10.27
2018-07-06T07:54:57.802Z,10.93
2018-07-06T07:57:25.787Z,12.93
2018-07-06T07:59:55.095Z,12.03
2018-07-06T08:02:22.932Z,9.43
2018-07-06T08:04:51.913Z,10.20
2018-07-06T08:07:19.953Z,10.83
2018-07-06T08:09:50.834Z,7.40
2018-07-06T08:12:18.905Z,8.60
2018-07-06T08:14:46.822Z,9.90
2018-07-06T08:17:14.715Z,8.53
2018-07-06T08:19:44.091Z,10.00
2018-07-06T08:22:12.069Z,7.83
2018-07-06T08:24:40.086Z,6.63
2018-07-06T08:27:08.008Z,9.33
2018-07-06T08:29:35.972Z,9.27
2018-07-06T08:32:04.017Z,8.60
2018-07-06T08:34:43.335Z,12.97
2018-07-06T08:37:41.767Z,7.50
2018-07-06T08:40:09.854Z,8.80
2018-07-06T08:42:39.837Z,11.30
2018-07-06T08:45:08.203Z,11.33
2018-07-06T08:47:36.207Z,9.60
2018-07-06T08:50:05.402Z,8.20
2018-07-06T08:52:33.753Z,7.87
2018-07-06T08:55:02.059Z,7.17
2018-07-06T08:57:31.382Z,9.27
2018-07-06T08:59:59.532Z,8.90
2018-07-06T09:02:27.787Z,10.00
2018-07-06T09:04:56.884Z,9.80
2018-07-06T09:07:24.883Z,11.93
2018-07-06T09:09:53.751Z,12.50
2018-07-06T09:12:21.551Z,10.50
2018-07-06T09:14:50.412Z,12.80
2018-07-06T09:17:19.096Z,11.07
2018-07-06T09:19:47.609Z,12.43
2018-07-06T09:22:15.733Z,16.07
2018-07-06T09:24:44.650Z,8.80
2018-07-06T09:27:12.569Z,9.90
2018-07-06T09:29:41.015Z,12.37
2018-07-06T09:32:09.370Z,13.80
2018-07-06T09:34:37.622Z,12.17
2018-07-06T09:37:05.856Z,10.50
2018-07-06T09:39:33.778Z,14.87
2018-07-06T09:42:01.847Z,12.27
2018-07-06T09:44:29.829Z,14.00
2018-07-06T09:46:58.117Z,15.57
2018-07-06T09:49:26.282Z,10.70
2018-07-06T09:51:54.659Z,13.60
2018-07-06T09:54:22.711Z,11.33
2018-07-06T09:56:50.678Z,16.13
2018-07-06T09:59:18.707Z,13.00
2018-07-06T10:01:46.703Z,12.97
2018-07-06T10:04:14.649Z,12.83
2018-07-06T10:06:42.611Z,11.50
2018-07-06T10:09:11.159Z,14.87
2018-07-06T10:11:38.937Z,15.10
2018-07-06T10:14:06.891Z,16.43
2018-07-06T10:16:34.802Z,13.90
2018-07-06T10:19:02.788Z,15.50
2018-07-06T10:21:30.804Z,19.20
2018-07-06T10:23:58.979Z,16.97
2018-07-06T10:26:27.682Z,14.40
2018-07-06T10:29:13.158Z,14.83
2018-07-06T10:32:22.980Z,15.30
2018-07-06T10:34:52.177Z,20.43
2018-07-06T10:37:20.585Z,12.43
2018-07-06T10:39:49.250Z,15.60
2018-07-06T10:42:17.218Z,13.50
2018-07-06T10:44:45.379Z,14.33
2018-07-06T10:47:13.514Z,12.73
2018-07-06T10:49:41.874Z,15.93
2018-07-06T10:52:10.627Z,13.80
2018-07-06T10:54:39.621Z,15.37
2018-07-06T10:57:07.701Z,13.37
2018-07-06T10:59:35.654Z,14.30
2018-07-06T11:02:04.280Z,11.43
2018-07-06T11:04:32.431Z,12.80
2018-07-06T11:07:00.476Z,16.37
2018-07-06T11:09:28.435Z,14.37
2018-07-06T11:11:56.394Z,14.83
2018-07-06T11:14:24.839Z,25.80
2018-07-06T11:16:52.769Z,10.33
2018-07-06T11:19:20.697Z,12.20
2018-07-06T11:21:48.575Z,11.77
2018-07-06T11:24:16.687Z,14.67
2018-07-06T11:26:44.492Z,10.87
2018-07-06T11:29:12.414Z,12.77
2018-07-06T11:31:40.149Z,11.30
2018-07-06T11:34:08.676Z,13.07
2018-07-06T11:36:36.655Z,11.70
2018-07-06T11:39:05.898Z,11.20
2018-07-06T11:41:34.525Z,13.93
2018-07-06T11:44:02.344Z,14.67
2018-07-06T11:46:30.369Z,9.57
2018-07-06T11:48:58.764Z,12.93
2018-07-06T11:51:26.728Z,11.53
2018-07-06T11:53:54.547Z,11.13
2018-07-06T11:56:24.638Z,12.30
2018-07-06T11:58:53.201Z,14.50
2018-07-06T12:01:23.258Z,10.23
2018-07-06T12:03:52.485Z,7.83
2018-07-06T12:06:22.131Z,11.30
2018-07-06T12:08:52.695Z,9.43
2018-07-06T12:11:21.617Z,12.57
2018-07-06T12:13:50.699Z,9.53
2018-07-06T12:16:19.132Z,9.83
2018-07-06T12:18:47.086Z,12.13
2018-07-06T12:21:15.095Z,11.33
2018-07-06T12:23:42.950Z,15.50
2018-07-06T12:26:11.695Z,10.50
2018-07-06T12:28:39.574Z,9.97
2018-07-06T12:31:07.351Z,8.80
2018-07-06T12:33:35.319Z,9.67
2018-07-06T12:36:03.326Z,13.13
2018-07-06T12:38:31.938Z,10.90
2018-07-06T12:40:59.798Z,11.70
2018-07-06T12:43:27.720Z,8.50
2018-07-06T12:45:56.914Z,10.37
2018-07-06T12:48:25.075Z,9.73
2018-07-06T12:50:53.628Z,9.90
2018-07-06T12:53:21.936Z,9.30
2018-07-06T12:55:50.619Z,7.53
2018-07-06T12:58:18.525Z,9.97
2018-07-06T13:00:46.297Z,7.90
2018-07-06T13:03:15.139Z,8.53
2018-07-06T13:05:42.945Z,10.30
2018-07-06T13:08:11.183Z,7.83
2018-07-06T13:10:39.045Z,13.03
2018-07-06T13:13:06.833Z,10.90
2018-07-06T13:15:34.763Z,10.93
2018-07-06T13:18:02.683Z,9.43
2018-07-06T13:20:30.593Z,9.00
2018-07-06T13:22:58.515Z,11.30
2018-07-06T13:25:26.649Z,7.53
2018-07-06T13:27:54.588Z,7.60
2018-07-06T13:30:22.503Z,8.57
2018-07-06T13:32:50.658Z,8.27
2018-07-06T13:35:18.563Z,15.00
2018-07-06T13:37:47.232Z,9.63
2018-07-06T13:40:15.502Z,8.77
2018-07-06T13:42:43.539Z,8.10
2018-07-06T13:45:11.461Z,5.73
2018-07-06T13:47:39.472Z,7.80
2018-07-06T13:50:07.376Z,7.20
2018-07-06T13:52:35.235Z,11.30
2018-07-06T13:55:03.056Z,7.47
2018-07-06T13:57:30.992Z,10.07
2018-07-06T13:59:58.898Z,13.03
2018-07-06T14:02:26.794Z,9.30
2018-07-06T14:04:54.699Z,7.97
2018-07-06T14:07:22.853Z,7.10
2018-07-06T14:09:51.139Z,6.90
2018-07-06T14:12:19.193Z,7.20
2018-07-06T14:14:46.964Z,8.40
2018-07-06T14:17:14.883Z,11.70
2018-07-06T14:19:42.821Z,8.40
2018-07-06T14:22:10.848Z,7.77
2018-07-06T14:24:38.755Z,9.47
2018-07-06T14:27:07.625Z,8.90
2018-07-06T14:29:35.702Z,8.27
2018-07-06T14:32:04.335Z,8.80
2018-07-06T14:34:32.249Z,9.77
2018-07-06T14:37:00.279Z,8.80
2018-07-06T14:39:28.210Z,10.53
2018-07-06T14:41:56.177Z,29.90
2018-07-06T14:44:24.084Z,16.43
2018-07-06T14:46:52.062Z,15.53
2018-07-06T14:49:20.135Z,13.73
2018-07-06T14:51:48.050Z,20.63
2018-07-06T14:54:15.932Z,16.50
2018-07-06T14:56:43.890Z,18.40
2018-07-06T14:59:11.959Z,16.80
2018-07-06T15:01:40.416Z,34.73
2018-07-06T15:04:08.228Z,23.97
2018-07-06T15:06:37.066Z,19.87
2018-07-06T15:09:05.740Z,23.70
2018-07-06T15:11:33.565Z,15.87
2018-07-06T15:14:01.435Z,17.93
2018-07-06T15:16:29.323Z,13.57
2018-07-06T15:18:57.230Z,15.27
2018-07-06T15:21:25.155Z,16.03
2018-07-06T15:23:53.079Z,12.90
2018-07-06T15:26:20.973Z,11.77
2018-07-06T15:28:48.876Z,15.37
2018-07-06T15:31:17.284Z,15.90
2018-07-06T15:33:45.257Z,10.73
2018-07-06T15:36:13.202Z,12.13
2018-07-06T15:38:41.215Z,13.20
2018-07-06T15:41:09.824Z,15.67
2018-07-06T15:43:37.956Z,9.80
2018-07-06T15:46:05.886Z,13.50
2018-07-06T15:48:34.487Z,14.20
2018-07-06T15:51:03.095Z,15.90
2018-07-06T15:53:30.997Z,12.00
2018-07-06T15:55:58.889Z,15.80
2018-07-06T15:58:26.832Z,10.47
2018-07-06T16:00:54.796Z,21.20
2018-07-06T16:03:22.724Z,17.00
2018-07-06T16:05:50.483Z,9.07
2018-07-06T16:08:19.140Z,11.97
2018-07-06T16:10:47.146Z,22.70
2018-07-06T16:13:15.724Z,11.80
2018-07-06T16:15:45.162Z,9.57
2018-07-06T16:18:13.215Z,16.03
2018-07-06T16:20:41.024Z,9.83
2018-07-06T16:23:08.888Z,12.33
2018-07-06T16:25:36.822Z,10.20
2018-07-06T16:28:04.571Z,9.63
2018-07-06T16:30:32.506Z,9.07
2018-07-06T16:33:00.412Z,11.37
2018-07-06T16:35:28.385Z,7.97
2018-07-06T16:37:56.323Z,10.80
2018-07-06T16:40:24.443Z,10.43
2018-07-06T16:42:52.480Z,7.60
2018-07-06T16:45:20.384Z,9.30
2018-07-06T16:47:48.350Z,12.43
2018-07-06T16:50:16.102Z,8.60
2018-07-06T16:52:44.064Z,8.40
2018-07-06T16:55:12.043Z,9.40
2018-07-06T16:57:40.355Z,15.80
2018-07-06T17:00:08.346Z,10.33
2018-07-06T17:02:36.240Z,11.60
2018-07-06T17:05:04.278Z,10.63
2018-07-06T17:07:32.199Z,8.80
2018-07-06T17:10:00.124Z,11.90
2018-07-06T17:12:28.033Z,9.20
2018-07-06T17:14:55.787Z,13.30
2018-07-06T17:17:24.002Z,16.10
2018-07-06T17:19:52.891Z,10.33
2018-07-06T17:22:21.863Z,8.50
2018-07-06T17:24:50.602Z,10.50
2018-07-06T17:27:19.904Z,9.60
2018-07-06T17:29:48.068Z,10.70
2018-07-06T17:32:16.074Z,11.50
2018-07-06T17:34:44.181Z,12.60
2018-07-06T17:37:12.123Z,10.20
2018-07-06T17:39:40.062Z,10.07
2018-07-06T17:42:08.465Z,13.50
2018-07-06T17:44:36.241Z,14.07
2018-07-06T17:47:05.024Z,11.60
2018-07-06T17:49:32.960Z,12.70
2018-07-06T17:52:00.844Z,12.80
2018-07-06T17:54:29.045Z,14.90
2018-07-06T17:56:56.942Z,11.87
2018-07-06T17:59:24.848Z,12.47
2018-07-06T18:01:52.735Z,12.17
2018-07-06T18:04:20.621Z,13.23
2018-07-06T18:06:49.512Z,11.00
2018-07-06T18:09:17.632Z,18.77
2018-07-06T18:11:45.559Z,10.80
2018-07-06T18:14:13.643Z,9.20
2018-07-06T18:16:42.702Z,13.57
2018-07-06T18:19:10.456Z,10.73
2018-07-06T18:21:39.363Z,10.63
2018-07-06T18:24:07.261Z,10.67
2018-07-06T18:26:35.195Z,10.70
2018-07-06T18:29:02.979Z,12.07
2018-07-06T18:31:30.725Z,13.57
2018-07-06T18:33:58.794Z,14.70
2018-07-06T18:36:26.576Z,19.60
2018-07-06T18:38:54.500Z,13.23
2018-07-06T18:41:22.384Z,11.60
2018-07-06T18:43:50.672Z,9.93
2018-07-06T18:46:18.593Z,13.20
2018-07-06T18:48:46.956Z,13.80
2018-07-06T18:51:15.119Z,15.33
2018-07-06T18:53:44.073Z,15.43
2018-07-06T18:56:12.359Z,16.60
2018-07-06T18:58:41.281Z,12.90
2018-07-06T19:01:09.588Z,15.43
2018-07-06T19:03:38.045Z,13.50
2018-07-06T19:06:06.189Z,16.63
2018-07-06T19:08:34.283Z,15.83
2018-07-06T19:11:02.318Z,15.20
2018-07-06T19:13:30.098Z,15.43
2018-07-06T19:15:57.899Z,15.77
2018-07-06T19:18:25.784Z,23.67
2018-07-06T19:20:53.691Z,16.27
2018-07-06T19:23:21.456Z,15.27
2018-07-06T19:25:49.795Z,16.37
2018-07-06T19:28:17.698Z,14.83
2018-07-06T19:30:45.591Z,16.73
2018-07-06T19:33:13.523Z,17.93
2018-07-06T19:35:41.603Z,17.90
2018-07-06T19:38:09.430Z,16.70
2018-07-06T19:40:37.473Z,18.30
2018-07-06T19:43:05.390Z,16.03
2018-07-06T19:45:33.829Z,16.23
2018-07-06T19:48:01.797Z,15.50
2018-07-06T19:50:30.194Z,13.70
2018-07-06T19:52:58.120Z,14.37
2018-07-06T19:55:26.058Z,14.03
2018-07-06T19:57:54.110Z,18.77
2018-07-06T20:00:22.230Z,14.73
2018-07-06T20:02:50.254Z,13.97
2018-07-06T20:05:18.484Z,13.90
2018-07-06T20:07:46.969Z,14.60
2018-07-06T20:10:15.050Z,15.90
2018-07-06T20:12:42.983Z,15.10
2018-07-06T20:15:11.529Z,12.70
2018-07-06T20:17:39.573Z,18.57
2018-07-06T20:20:09.154Z,17.57
2018-07-06T20:22:37.685Z,15.90
2018-07-06T20:25:05.822Z,15.40
2018-07-06T20:27:34.002Z,15.13
2018-07-06T20:30:01.918Z,13.07
2018-07-06T20:32:31.004Z,17.00
2018-07-06T20:35:01.052Z,22.40
2018-07-06T20:37:28.994Z,14.10
2018-07-06T20:39:56.946Z,13.53
2018-07-06T20:42:24.871Z,15.97
2018-07-06T20:44:53.419Z,16.60
2018-07-06T20:47:21.339Z,15.30
2018-07-06T20:49:49.607Z,17.93
2018-07-06T20:52:18.299Z,17.90
2018-07-06T20:54:46.224Z,17.60
2018-07-06T20:57:14.944Z,17.10
2018-07-06T20:59:43.017Z,16.63
2018-07-06T21:02:10.986Z,14.63
2018-07-06T21:04:38.906Z,15.40
2018-07-06T21:07:06.825Z,16.50
2018-07-06T21:09:34.603Z,14.00
2018-07-06T21:12:02.673Z,18.70
2018-07-06T21:14:30.450Z,21.60
2018-07-06T21:16:58.639Z,15.20
2018-07-06T21:19:27.583Z,17.20
2018-07-06T21:21:55.791Z,21.63
2018-07-06T21:24:24.503Z,15.27
2018-07-06T21:26:52.511Z,15.03
2018-07-06T21:29:20.274Z,18.57
2018-07-06T21:31:48.270Z,16.87
2018-07-06T21:34:16.185Z,15.20
2018-07-06T21:36:44.105Z,15.90
2018-07-06T21:39:12.011Z,18.53
2018-07-06T21:41:40.015Z,17.80
2018-07-06T21:44:08.495Z,16.30
2018-07-06T21:46:36.401Z,21.70
2018-07-06T21:49:04.289Z,19.40
2018-07-06T21:51:32.875Z,14.50
2018-07-06T21:54:00.891Z,16.93
2018-07-06T21:56:29.622Z,17.67
2018-07-06T21:58:57.560Z,14.47
2018-07-06T22:01:25.519Z,19.43
2018-07-06T22:03:53.445Z,17.10
2018-07-06T22:06:22.240Z,18.47
2018-07-06T22:08:50.166Z,15.10
2018-07-06T22:11:18.169Z,18.50
2018-07-06T22:13:46.107Z,15.57
2018-07-06T22:16:14.976Z,17.47
2018-07-06T22:18:43.066Z,21.97
2018-07-06T22:21:10.791Z,15.07
2018-07-06T22:23:38.667Z,17.50
2018-07-06T22:26:07.238Z,19.07
2018-07-06T22:28:35.498Z,19.27
2018-07-06T22:31:03.675Z,15.70
2018-07-06T22:33:31.578Z,14.27
2018-07-06T22:35:59.344Z,16.73
2018-07-06T22:38:27.239Z,11.37
2018-07-06T22:40:55.164Z,14.07
2018-07-06T22:43:23.724Z,15.70
2018-07-06T22:45:51.913Z,12.90
2018-07-06T22:48:19.831Z,13.40
2018-07-06T22:50:47.741Z,13.30
2018-07-06T22:53:15.617Z,14.00
2018-07-06T22:55:43.510Z,15.60
2018-07-06T22:58:11.422Z,11.97
2018-07-06T23:00:39.333Z,14.50
2018-07-06T23:03:07.238Z,13.23
2018-07-06T23:05:35.679Z,15.80
2018-07-06T23:08:03.902Z,12.90
2018-07-06T23:10:33.279Z,14.70
2018-07-06T23:13:01.177Z,14.07
2018-07-06T23:15:29.162Z,11.07
2018-07-06T23:17:57.066Z,12.90
2018-07-06T23:20:24.861Z,18.10
2018-07-06T23:23:02.338Z,12.60
2018-07-06T23:25:31.648Z,13.00
2018-07-06T23:27:59.540Z,19.77
2018-07-06T23:30:27.478Z,13.27
2018-07-06T23:32:56.386Z,18.70
2018-07-06T23:35:25.515Z,15.00
2018-07-06T23:37:54.366Z,18.00
2018-07-06T23:40:22.344Z,14.67
2018-07-06T23:42:50.865Z,11.93
2018-07-06T23:45:19.068Z,16.63
2018-07-06T23:47:46.964Z,11.83
2018-07-06T23:50:15.111Z,13.70
2018-07-06T23:52:43.274Z,11.47
2018-07-06T23:55:11.675Z,14.47
2018-07-06T23:57:39.423Z,11.90
